sensor_id;sensor_type;location;lat;lon;timestamp;P1;durP1;ratioP1;P2;durP2;ratioP2
59442;SDS011;45247;47.466;19.004;2022-11-15T00:01:16;58.03;;;29.25;;
59442;SDS011;45247;47.466;19.004;2022-11-15T00:03:46;50.37;;;28.57;;
59442;SDS011;45247;47.466;19.004;2022-11-15T00:06:18;48.75;;;26.52;;
59442;SDS011;45247;47.466;19.004;2022-11-15T00:08:46;49.38;;;24.83;;
59442;SDS011;45247;47.466;19.004;2022-11-15T00:11:14;40.88;;;23.92;;
59442;SDS011;45247;47.466;19.004;2022-11-15T00:13:43;44.38;;;24.70;;
59442;SDS011;45247;47.466;19.004;2022-11-15T00:16:11;44.00;;;24.98;;
59442;SDS011;45247;47.466;19.004;2022-11-15T00:18:41;43.40;;;24.48;;
59442;SDS011;45247;47.466;19.004;2022-11-15T00:21:16;37.22;;;21.40;;
59442;SDS011;45247;47.466;19.004;2022-11-15T00:23:45;39.08;;;21.83;;
59442;SDS011;45247;47.466;19.004;2022-11-15T00:26:14;39.13;;;21.67;;
59442;SDS011;45247;47.466;19.004;2022-11-15T00:28:42;33.15;;;20.75;;
59442;SDS011;45247;47.466;19.004;2022-11-15T00:31:12;37.63;;;20.60;;
59442;SDS011;45247;47.466;19.004;2022-11-15T00:33:44;35.58;;;20.02;;
59442;SDS011;45247;47.466;19.004;2022-11-15T00:36:12;37.90;;;21.08;;
59442;SDS011;45247;47.466;19.004;2022-11-15T00:38:40;39.45;;;21.50;;
59442;SDS011;45247;47.466;19.004;2022-11-15T00:41:09;37.97;;;19.77;;
59442;SDS011;45247;47.466;19.004;2022-11-15T00:43:37;31.73;;;20.08;;
59442;SDS011;45247;47.466;19.004;2022-11-15T00:46:06;31.73;;;18.98;;
59442;SDS011;45247;47.466;19.004;2022-11-15T00:48:36;29.15;;;18.55;;
59442;SDS011;45247;47.466;19.004;2022-11-15T00:51:06;33.60;;;19.08;;
59442;SDS011;45247;47.466;19.004;2022-11-15T00:53:34;43.17;;;24.63;;
59442;SDS011;45247;47.466;19.004;2022-11-15T00:56:02;37.72;;;22.48;;
59442;SDS011;45247;47.466;19.004;2022-11-15T00:58:31;39.60;;;23.42;;
59442;SDS011;45247;47.466;19.004;2022-11-15T01:01:05;51.05;;;27.45;;
59442;SDS011;45247;47.466;19.004;2022-11-15T01:03:34;47.15;;;27.98;;
59442;SDS011;45247;47.466;19.004;2022-11-15T01:06:03;51.92;;;28.55;;
59442;SDS011;45247;47.466;19.004;2022-11-15T01:08:32;45.08;;;25.13;;
59442;SDS011;45247;47.466;19.004;2022-11-15T01:11:01;50.45;;;28.52;;
59442;SDS011;45247;47.466;19.004;2022-11-15T01:13:30;45.83;;;26.75;;
59442;SDS011;45247;47.466;19.004;2022-11-15T01:15:59;39.50;;;23.15;;
59442;SDS011;45247;47.466;19.004;2022-11-15T01:18:32;44.88;;;25.25;;
59442;SDS011;45247;47.466;19.004;2022-11-15T01:21:04;47.38;;;25.67;;
59442;SDS011;45247;47.466;19.004;2022-11-15T01:23:34;42.92;;;23.95;;
59442;SDS011;45247;47.466;19.004;2022-11-15T01:26:02;44.13;;;23.85;;
59442;SDS011;45247;47.466;19.004;2022-11-15T01:28:32;39.95;;;23.83;;
59442;SDS011;45247;47.466;19.004;2022-11-15T01:31:01;42.50;;;22.95;;
59442;SDS011;45247;47.466;19.004;2022-11-15T01:33:33;35.40;;;21.73;;
59442;SDS011;45247;47.466;19.004;2022-11-15T01:36:03;35.42;;;20.40;;
59442;SDS011;45247;47.466;19.004;2022-11-15T01:38:33;31.60;;;20.25;;
59442;SDS011;45247;47.466;19.004;2022-11-15T01:41:02;34.20;;;21.08;;
59442;SDS011;45247;47.466;19.004;2022-11-15T01:43:31;39.60;;;22.45;;
59442;SDS011;45247;47.466;19.004;2022-11-15T01:46:02;37.63;;;20.52;;
59442;SDS011;45247;47.466;19.004;2022-11-15T01:48:46;35.85;;;19.80;;
59442;SDS011;45247;47.466;19.004;2022-11-15T01:51:15;31.90;;;18.90;;
59442;SDS011;45247;47.466;19.004;2022-11-15T01:53:47;34.50;;;19.50;;
59442;SDS011;45247;47.466;19.004;2022-11-15T01:56:20;32.25;;;18.10;;
59442;SDS011;45247;47.466;19.004;2022-11-15T01:58:51;32.25;;;19.05;;
59442;SDS011;45247;47.466;19.004;2022-11-15T02:01:22;40.40;;;21.83;;
59442;SDS011;45247;47.466;19.004;2022-11-15T02:03:55;44.65;;;25.08;;
59442;SDS011;45247;47.466;19.004;2022-11-15T02:06:26;47.83;;;25.55;;
59442;SDS011;45247;47.466;19.004;2022-11-15T02:08:56;46.47;;;25.52;;
59442;SDS011;45247;47.466;19.004;2022-11-15T02:11:24;42.50;;;23.10;;
59442;SDS011;45247;47.466;19.004;2022-11-15T02:13:53;35.78;;;21.27;;
59442;SDS011;45247;47.466;19.004;2022-11-15T02:16:25;36.13;;;23.15;;
59442;SDS011;45247;47.466;19.004;2022-11-15T02:18:59;33.08;;;20.30;;
59442;SDS011;45247;47.466;19.004;2022-11-15T02:21:36;36.13;;;20.83;;
59442;SDS011;45247;47.466;19.004;2022-11-15T02:30:22;29.33;;;17.08;;
59442;SDS011;45247;47.466;19.004;2022-11-15T02:35:28;26.95;;;15.95;;
59442;SDS011;45247;47.466;19.004;2022-11-15T02:38:05;27.65;;;17.40;;
59442;SDS011;45247;47.466;19.004;2022-11-15T02:40:38;31.02;;;17.35;;
59442;SDS011;45247;47.466;19.004;2022-11-15T02:43:14;27.23;;;16.83;;
59442;SDS011;45247;47.466;19.004;2022-11-15T02:46:06;25.60;;;16.33;;
59442;SDS011;45247;47.466;19.004;2022-11-15T02:48:40;26.88;;;16.13;;
59442;SDS011;45247;47.466;19.004;2022-11-15T02:51:10;26.63;;;16.75;;
59442;SDS011;45247;47.466;19.004;2022-11-15T02:53:40;30.10;;;15.77;;
59442;SDS011;45247;47.466;19.004;2022-11-15T02:56:08;27.98;;;16.55;;
59442;SDS011;45247;47.466;19.004;2022-11-15T02:58:48;28.65;;;16.98;;
59442;SDS011;45247;47.466;19.004;2022-11-15T03:01:34;26.95;;;16.38;;
59442;SDS011;45247;47.466;19.004;2022-11-15T03:04:12;27.13;;;17.25;;
59442;SDS011;45247;47.466;19.004;2022-11-15T03:06:52;26.15;;;15.98;;
59442;SDS011;45247;47.466;19.004;2022-11-15T03:09:28;28.98;;;16.45;;
59442;SDS011;45247;47.466;19.004;2022-11-15T03:12:03;26.80;;;15.48;;
59442;SDS011;45247;47.466;19.004;2022-11-15T03:14:37;25.15;;;15.63;;
59442;SDS011;45247;47.466;19.004;2022-11-15T03:17:16;24.00;;;15.27;;
59442;SDS011;45247;47.466;19.004;2022-11-15T03:19:51;27.40;;;15.13;;
59442;SDS011;45247;47.466;19.004;2022-11-15T03:22:22;29.17;;;16.48;;
59442;SDS011;45247;47.466;19.004;2022-11-15T03:24:54;27.92;;;16.98;;
59442;SDS011;45247;47.466;19.004;2022-11-15T03:27:27;26.58;;;16.30;;
59442;SDS011;45247;47.466;19.004;2022-11-15T03:32:30;24.90;;;14.82;;
59442;SDS011;45247;47.466;19.004;2022-11-15T03:35:04;23.42;;;15.05;;
59442;SDS011;45247;47.466;19.004;2022-11-15T03:37:35;23.40;;;15.55;;
59442;SDS011;45247;47.466;19.004;2022-11-15T03:40:06;24.92;;;14.85;;
59442;SDS011;45247;47.466;19.004;2022-11-15T03:42:38;25.65;;;15.68;;
59442;SDS011;45247;47.466;19.004;2022-11-15T03:45:12;22.35;;;14.63;;
59442;SDS011;45247;47.466;19.004;2022-11-15T03:47:45;21.80;;;13.98;;
59442;SDS011;45247;47.466;19.004;2022-11-15T03:50:18;23.35;;;14.75;;
59442;SDS011;45247;47.466;19.004;2022-11-15T03:52:48;24.63;;;14.43;;
59442;SDS011;45247;47.466;19.004;2022-11-15T03:55:20;24.35;;;14.55;;
59442;SDS011;45247;47.466;19.004;2022-11-15T03:57:50;23.75;;;14.32;;
59442;SDS011;45247;47.466;19.004;2022-11-15T04:00:21;25.48;;;16.00;;
59442;SDS011;45247;47.466;19.004;2022-11-15T04:02:50;23.05;;;14.48;;
59442;SDS011;45247;47.466;19.004;2022-11-15T04:05:18;27.10;;;14.25;;
59442;SDS011;45247;47.466;19.004;2022-11-15T04:07:46;25.85;;;15.27;;
59442;SDS011;45247;47.466;19.004;2022-11-15T04:10:15;22.75;;;14.23;;
59442;SDS011;45247;47.466;19.004;2022-11-15T04:12:44;24.95;;;14.77;;
59442;SDS011;45247;47.466;19.004;2022-11-15T04:15:14;23.02;;;14.80;;
59442;SDS011;45247;47.466;19.004;2022-11-15T04:17:44;22.48;;;13.68;;
59442;SDS011;45247;47.466;19.004;2022-11-15T04:20:15;27.67;;;15.55;;
59442;SDS011;45247;47.466;19.004;2022-11-15T04:23:03;22.75;;;14.20;;
59442;SDS011;45247;47.466;19.004;2022-11-15T04:25:52;24.83;;;14.57;;
59442;SDS011;45247;47.466;19.004;2022-11-15T04:28:21;24.15;;;14.30;;
59442;SDS011;45247;47.466;19.004;2022-11-15T04:30:51;25.40;;;15.05;;
59442;SDS011;45247;47.466;19.004;2022-11-15T04:33:19;26.15;;;14.77;;
59442;SDS011;45247;47.466;19.004;2022-11-15T04:35:49;22.30;;;13.68;;
59442;SDS011;45247;47.466;19.004;2022-11-15T04:38:31;24.83;;;13.80;;
59442;SDS011;45247;47.466;19.004;2022-11-15T04:40:59;23.83;;;13.48;;
59442;SDS011;45247;47.466;19.004;2022-11-15T04:43:27;26.02;;;14.10;;
59442;SDS011;45247;47.466;19.004;2022-11-15T04:45:56;21.92;;;13.75;;
59442;SDS011;45247;47.466;19.004;2022-11-15T04:48:24;24.00;;;13.85;;
59442;SDS011;45247;47.466;19.004;2022-11-15T04:50:53;21.73;;;13.10;;
59442;SDS011;45247;47.466;19.004;2022-11-15T04:53:22;24.33;;;14.05;;
59442;SDS011;45247;47.466;19.004;2022-11-15T04:55:50;24.38;;;13.65;;
59442;SDS011;45247;47.466;19.004;2022-11-15T04:58:18;21.85;;;13.77;;
59442;SDS011;45247;47.466;19.004;2022-11-15T05:00:46;23.85;;;14.13;;
59442;SDS011;45247;47.466;19.004;2022-11-15T05:03:14;25.63;;;14.57;;
59442;SDS011;45247;47.466;19.004;2022-11-15T05:06:01;27.67;;;14.25;;
59442;SDS011;45247;47.466;19.004;2022-11-15T05:08:29;26.75;;;15.48;;
59442;SDS011;45247;47.466;19.004;2022-11-15T05:10:58;21.33;;;13.75;;
59442;SDS011;45247;47.466;19.004;2022-11-15T05:13:26;27.05;;;14.75;;
59442;SDS011;45247;47.466;19.004;2022-11-15T05:15:54;22.60;;;13.82;;
59442;SDS011;45247;47.466;19.004;2022-11-15T05:18:23;25.00;;;14.38;;
59442;SDS011;45247;47.466;19.004;2022-11-15T05:20:51;23.23;;;14.25;;
59442;SDS011;45247;47.466;19.004;2022-11-15T05:23:20;21.92;;;14.02;;
59442;SDS011;45247;47.466;19.004;2022-11-15T05:25:48;21.92;;;12.27;;
59442;SDS011;45247;47.466;19.004;2022-11-15T05:28:16;26.83;;;14.82;;
59442;SDS011;45247;47.466;19.004;2022-11-15T05:30:44;33.28;;;18.67;;
59442;SDS011;45247;47.466;19.004;2022-11-15T05:33:12;33.15;;;19.38;;
59442;SDS011;45247;47.466;19.004;2022-11-15T05:35:41;31.52;;;17.55;;
59442;SDS011;45247;47.466;19.004;2022-11-15T05:38:16;29.50;;;17.80;;
59442;SDS011;45247;47.466;19.004;2022-11-15T05:40:46;30.40;;;17.33;;
59442;SDS011;45247;47.466;19.004;2022-11-15T05:43:14;28.90;;;17.17;;
59442;SDS011;45247;47.466;19.004;2022-11-15T05:45:42;28.40;;;15.68;;
59442;SDS011;45247;47.466;19.004;2022-11-15T05:48:11;28.48;;;17.02;;
59442;SDS011;45247;47.466;19.004;2022-11-15T05:50:41;30.58;;;17.55;;
59442;SDS011;45247;47.466;19.004;2022-11-15T05:53:14;27.75;;;16.58;;
59442;SDS011;45247;47.466;19.004;2022-11-15T05:55:48;26.80;;;16.17;;
59442;SDS011;45247;47.466;19.004;2022-11-15T05:58:16;32.17;;;18.30;;
59442;SDS011;45247;47.466;19.004;2022-11-15T06:00:45;25.08;;;16.35;;
59442;SDS011;45247;47.466;19.004;2022-11-15T06:03:14;30.42;;;19.55;;
59442;SDS011;45247;47.466;19.004;2022-11-15T06:05:42;30.73;;;18.52;;
59442;SDS011;45247;47.466;19.004;2022-11-15T06:08:10;33.17;;;19.15;;
59442;SDS011;45247;47.466;19.004;2022-11-15T06:10:38;30.85;;;17.58;;
59442;SDS011;45247;47.466;19.004;2022-11-15T06:13:08;34.25;;;19.98;;
59442;SDS011;45247;47.466;19.004;2022-11-15T06:15:36;32.63;;;19.45;;
59442;SDS011;45247;47.466;19.004;2022-11-15T06:18:04;35.58;;;20.42;;
59442;SDS011;45247;47.466;19.004;2022-11-15T06:20:32;34.92;;;21.35;;
59442;SDS011;45247;47.466;19.004;2022-11-15T06:23:00;37.20;;;22.73;;
59442;SDS011;45247;47.466;19.004;2022-11-15T06:25:30;38.50;;;22.30;;
59442;SDS011;45247;47.466;19.004;2022-11-15T06:27:59;37.97;;;23.23;;
59442;SDS011;45247;47.466;19.004;2022-11-15T06:30:28;38.50;;;22.90;;
59442;SDS011;45247;47.466;19.004;2022-11-15T06:32:59;37.20;;;22.48;;
59442;SDS011;45247;47.466;19.004;2022-11-15T06:35:29;43.35;;;24.83;;
59442;SDS011;45247;47.466;19.004;2022-11-15T06:38:01;41.33;;;23.35;;
59442;SDS011;45247;47.466;19.004;2022-11-15T06:40:32;44.95;;;23.88;;
59442;SDS011;45247;47.466;19.004;2022-11-15T06:43:02;39.45;;;23.52;;
59442;SDS011;45247;47.466;19.004;2022-11-15T06:45:32;40.92;;;24.42;;
59442;SDS011;45247;47.466;19.004;2022-11-15T06:48:00;42.83;;;25.85;;
59442;SDS011;45247;47.466;19.004;2022-11-15T06:50:28;39.97;;;24.25;;
59442;SDS011;45247;47.466;19.004;2022-11-15T06:53:00;40.50;;;24.95;;
59442;SDS011;45247;47.466;19.004;2022-11-15T06:55:29;41.97;;;25.05;;
59442;SDS011;45247;47.466;19.004;2022-11-15T06:57:57;43.72;;;25.85;;
59442;SDS011;45247;47.466;19.004;2022-11-15T07:00:25;42.05;;;25.60;;
59442;SDS011;45247;47.466;19.004;2022-11-15T07:02:54;45.50;;;26.05;;
59442;SDS011;45247;47.466;19.004;2022-11-15T07:05:22;47.15;;;27.08;;
59442;SDS011;45247;47.466;19.004;2022-11-15T07:07:51;44.05;;;26.00;;
59442;SDS011;45247;47.466;19.004;2022-11-15T07:10:20;44.13;;;26.98;;
59442;SDS011;45247;47.466;19.004;2022-11-15T07:12:50;49.63;;;29.38;;
59442;SDS011;45247;47.466;19.004;2022-11-15T07:15:19;44.50;;;26.13;;
59442;SDS011;45247;47.466;19.004;2022-11-15T07:17:48;48.63;;;27.73;;
59442;SDS011;45247;47.466;19.004;2022-11-15T07:20:17;46.05;;;27.77;;
59442;SDS011;45247;47.466;19.004;2022-11-15T07:22:46;40.67;;;25.98;;
59442;SDS011;45247;47.466;19.004;2022-11-15T07:25:14;42.97;;;26.17;;
59442;SDS011;45247;47.466;19.004;2022-11-15T07:27:42;42.33;;;25.40;;
59442;SDS011;45247;47.466;19.004;2022-11-15T07:30:11;42.35;;;25.10;;
59442;SDS011;45247;47.466;19.004;2022-11-15T07:32:41;45.28;;;26.83;;
59442;SDS011;45247;47.466;19.004;2022-11-15T07:35:09;46.25;;;25.60;;
59442;SDS011;45247;47.466;19.004;2022-11-15T07:37:39;42.38;;;26.25;;
59442;SDS011;45247;47.466;19.004;2022-11-15T07:40:07;45.75;;;26.75;;
59442;SDS011;45247;47.466;19.004;2022-11-15T07:42:36;42.85;;;24.60;;
59442;SDS011;45247;47.466;19.004;2022-11-15T07:45:23;42.63;;;25.98;;
59442;SDS011;45247;47.466;19.004;2022-11-15T07:47:53;42.97;;;26.48;;
59442;SDS011;45247;47.466;19.004;2022-11-15T07:50:22;40.78;;;25.33;;
59442;SDS011;45247;47.466;19.004;2022-11-15T07:52:55;40.55;;;25.83;;
59442;SDS011;45247;47.466;19.004;2022-11-15T07:55:26;44.17;;;25.45;;
59442;SDS011;45247;47.466;19.004;2022-11-15T07:57:59;38.03;;;24.20;;
59442;SDS011;45247;47.466;19.004;2022-11-15T08:00:28;50.50;;;27.30;;
59442;SDS011;45247;47.466;19.004;2022-11-15T08:03:02;40.40;;;24.70;;
59442;SDS011;45247;47.466;19.004;2022-11-15T08:05:31;44.00;;;25.73;;
59442;SDS011;45247;47.466;19.004;2022-11-15T08:08:01;41.75;;;25.08;;
59442;SDS011;45247;47.466;19.004;2022-11-15T08:10:29;42.45;;;25.17;;
59442;SDS011;45247;47.466;19.004;2022-11-15T08:13:06;37.22;;;23.33;;
59442;SDS011;45247;47.466;19.004;2022-11-15T08:15:36;43.83;;;25.23;;
59442;SDS011;45247;47.466;19.004;2022-11-15T08:18:06;41.88;;;24.95;;
59442;SDS011;45247;47.466;19.004;2022-11-15T08:20:37;38.92;;;24.33;;
59442;SDS011;45247;47.466;19.004;2022-11-15T08:23:07;41.78;;;25.17;;
59442;SDS011;45247;47.466;19.004;2022-11-15T08:25:37;43.53;;;27.48;;
59442;SDS011;45247;47.466;19.004;2022-11-15T08:28:06;42.47;;;25.13;;
59442;SDS011;45247;47.466;19.004;2022-11-15T08:30:35;44.22;;;26.35;;
59442;SDS011;45247;47.466;19.004;2022-11-15T08:33:09;41.08;;;26.10;;
59442;SDS011;45247;47.466;19.004;2022-11-15T08:35:39;37.17;;;22.23;;
59442;SDS011;45247;47.466;19.004;2022-11-15T08:38:09;39.53;;;24.80;;
59442;SDS011;45247;47.466;19.004;2022-11-15T08:40:37;48.17;;;25.60;;
59442;SDS011;45247;47.466;19.004;2022-11-15T08:43:05;45.25;;;26.13;;
59442;SDS011;45247;47.466;19.004;2022-11-15T08:45:34;38.92;;;24.20;;
59442;SDS011;45247;47.466;19.004;2022-11-15T08:48:03;40.70;;;24.38;;
59442;SDS011;45247;47.466;19.004;2022-11-15T08:50:32;44.67;;;25.77;;
59442;SDS011;45247;47.466;19.004;2022-11-15T08:53:03;45.25;;;25.60;;
59442;SDS011;45247;47.466;19.004;2022-11-15T08:58:03;43.47;;;24.77;;
59442;SDS011;45247;47.466;19.004;2022-11-15T09:00:31;42.72;;;26.05;;
59442;SDS011;45247;47.466;19.004;2022-11-15T09:02:59;47.05;;;27.48;;
59442;SDS011;45247;47.466;19.004;2022-11-15T09:05:31;47.38;;;26.95;;
59442;SDS011;45247;47.466;19.004;2022-11-15T09:07:59;46.05;;;26.88;;
59442;SDS011;45247;47.466;19.004;2022-11-15T09:10:49;44.25;;;26.50;;
59442;SDS011;45247;47.466;19.004;2022-11-15T09:13:17;45.20;;;28.15;;
59442;SDS011;45247;47.466;19.004;2022-11-15T09:15:45;45.45;;;27.85;;
59442;SDS011;45247;47.466;19.004;2022-11-15T09:18:13;44.25;;;27.17;;
59442;SDS011;45247;47.466;19.004;2022-11-15T09:20:41;45.92;;;26.45;;
59442;SDS011;45247;47.466;19.004;2022-11-15T09:23:09;48.42;;;28.13;;
59442;SDS011;45247;47.466;19.004;2022-11-15T09:25:37;49.50;;;28.35;;
59442;SDS011;45247;47.466;19.004;2022-11-15T09:28:07;46.00;;;27.73;;
59442;SDS011;45247;47.466;19.004;2022-11-15T09:30:35;51.10;;;28.63;;
59442;SDS011;45247;47.466;19.004;2022-11-15T09:33:06;39.17;;;24.35;;
59442;SDS011;45247;47.466;19.004;2022-11-15T09:35:35;46.42;;;26.48;;
59442;SDS011;45247;47.466;19.004;2022-11-15T09:38:03;40.45;;;27.27;;
59442;SDS011;45247;47.466;19.004;2022-11-15T09:40:32;43.22;;;25.08;;
59442;SDS011;45247;47.466;19.004;2022-11-15T09:43:06;46.22;;;27.05;;
59442;SDS011;45247;47.466;19.004;2022-11-15T09:45:53;39.72;;;25.27;;
59442;SDS011;45247;47.466;19.004;2022-11-15T09:48:34;45.28;;;27.33;;
59442;SDS011;45247;47.466;19.004;2022-11-15T09:51:12;48.92;;;26.92;;
59442;SDS011;45247;47.466;19.004;2022-11-15T09:53:48;42.65;;;27.58;;
59442;SDS011;45247;47.466;19.004;2022-11-15T09:56:40;49.38;;;26.67;;
59442;SDS011;45247;47.466;19.004;2022-11-15T09:59:17;41.15;;;26.02;;
59442;SDS011;45247;47.466;19.004;2022-11-15T10:01:56;45.22;;;28.17;;
59442;SDS011;45247;47.466;19.004;2022-11-15T10:04:36;46.20;;;26.58;;
59442;SDS011;45247;47.466;19.004;2022-11-15T10:07:06;46.55;;;28.52;;
59442;SDS011;45247;47.466;19.004;2022-11-15T10:09:45;51.63;;;29.45;;
59442;SDS011;45247;47.466;19.004;2022-11-15T10:12:16;47.25;;;28.65;;
59442;SDS011;45247;47.466;19.004;2022-11-15T10:14:46;46.30;;;28.30;;
59442;SDS011;45247;47.466;19.004;2022-11-15T10:20:13;53.13;;;30.73;;
59442;SDS011;45247;47.466;19.004;2022-11-15T10:22:47;53.15;;;30.15;;
59442;SDS011;45247;47.466;19.004;2022-11-15T10:25:19;45.80;;;29.70;;
59442;SDS011;45247;47.466;19.004;2022-11-15T10:27:53;46.00;;;28.60;;
59442;SDS011;45247;47.466;19.004;2022-11-15T10:30:29;50.83;;;29.90;;
59442;SDS011;45247;47.466;19.004;2022-11-15T10:33:08;55.35;;;29.15;;
59442;SDS011;45247;47.466;19.004;2022-11-15T10:35:42;51.80;;;29.90;;
59442;SDS011;45247;47.466;19.004;2022-11-15T10:38:11;48.97;;;30.35;;
59442;SDS011;45247;47.466;19.004;2022-11-15T10:40:40;55.97;;;29.65;;
59442;SDS011;45247;47.466;19.004;2022-11-15T10:43:14;49.72;;;30.27;;
59442;SDS011;45247;47.466;19.004;2022-11-15T10:45:45;51.47;;;30.60;;
59442;SDS011;45247;47.466;19.004;2022-11-15T10:48:20;47.40;;;28.85;;
59442;SDS011;45247;47.466;19.004;2022-11-15T10:50:51;49.63;;;30.27;;
59442;SDS011;45247;47.466;19.004;2022-11-15T10:53:22;68.40;;;30.40;;
59442;SDS011;45247;47.466;19.004;2022-11-15T10:55:55;49.72;;;29.15;;
59442;SDS011;45247;47.466;19.004;2022-11-15T10:58:35;50.38;;;30.15;;
59442;SDS011;45247;47.466;19.004;2022-11-15T11:01:11;48.15;;;28.80;;
59442;SDS011;45247;47.466;19.004;2022-11-15T11:03:41;46.38;;;29.40;;
59442;SDS011;45247;47.466;19.004;2022-11-15T11:06:12;49.95;;;30.35;;
59442;SDS011;45247;47.466;19.004;2022-11-15T11:08:52;53.80;;;29.83;;
59442;SDS011;45247;47.466;19.004;2022-11-15T11:11:22;60.30;;;32.63;;
59442;SDS011;45247;47.466;19.004;2022-11-15T11:13:50;53.08;;;30.80;;
59442;SDS011;45247;47.466;19.004;2022-11-15T11:16:23;56.42;;;31.48;;
59442;SDS011;45247;47.466;19.004;2022-11-15T11:19:08;58.30;;;32.40;;
59442;SDS011;45247;47.466;19.004;2022-11-15T11:21:57;46.15;;;28.45;;
59442;SDS011;45247;47.466;19.004;2022-11-15T11:24:34;53.03;;;29.23;;
59442;SDS011;45247;47.466;19.004;2022-11-15T11:27:11;50.30;;;28.52;;
59442;SDS011;45247;47.466;19.004;2022-11-15T11:29:50;46.38;;;28.75;;
59442;SDS011;45247;47.466;19.004;2022-11-15T11:32:34;54.83;;;28.30;;
59442;SDS011;45247;47.466;19.004;2022-11-15T11:35:22;50.30;;;30.33;;
59442;SDS011;45247;47.466;19.004;2022-11-15T11:37:57;46.78;;;27.77;;
59442;SDS011;45247;47.466;19.004;2022-11-15T11:40:37;45.50;;;27.88;;
59442;SDS011;45247;47.466;19.004;2022-11-15T11:43:12;49.95;;;28.80;;
59442;SDS011;45247;47.466;19.004;2022-11-15T11:46:01;48.42;;;28.88;;
59442;SDS011;45247;47.466;19.004;2022-11-15T11:48:42;46.38;;;28.42;;
59442;SDS011;45247;47.466;19.004;2022-11-15T11:51:13;45.13;;;28.13;;
59442;SDS011;45247;47.466;19.004;2022-11-15T11:53:47;45.10;;;27.50;;
59442;SDS011;45247;47.466;19.004;2022-11-15T11:56:23;46.33;;;29.17;;
59442;SDS011;45247;47.466;19.004;2022-11-15T11:58:55;42.67;;;27.40;;
59442;SDS011;45247;47.466;19.004;2022-11-15T12:01:28;46.22;;;27.98;;
59442;SDS011;45247;47.466;19.004;2022-11-15T12:04:03;49.63;;;28.92;;
59442;SDS011;45247;47.466;19.004;2022-11-15T12:06:38;50.60;;;29.38;;
59442;SDS011;45247;47.466;19.004;2022-11-15T12:09:13;46.28;;;29.90;;
59442;SDS011;45247;47.466;19.004;2022-11-15T12:11:47;49.95;;;30.75;;
59442;SDS011;45247;47.466;19.004;2022-11-15T12:14:23;49.22;;;28.58;;
59442;SDS011;45247;47.466;19.004;2022-11-15T12:16:57;48.90;;;29.63;;
59442;SDS011;45247;47.466;19.004;2022-11-15T12:19:27;45.58;;;27.80;;
59442;SDS011;45247;47.466;19.004;2022-11-15T12:21:58;47.95;;;29.80;;
59442;SDS011;45247;47.466;19.004;2022-11-15T12:24:30;51.20;;;30.98;;
59442;SDS011;45247;47.466;19.004;2022-11-15T12:27:03;55.25;;;31.58;;
59442;SDS011;45247;47.466;19.004;2022-11-15T12:29:38;56.17;;;33.25;;
59442;SDS011;45247;47.466;19.004;2022-11-15T12:32:13;64.28;;;34.28;;
59442;SDS011;45247;47.466;19.004;2022-11-15T12:34:54;48.50;;;30.77;;
59442;SDS011;45247;47.466;19.004;2022-11-15T12:40:24;61.08;;;34.22;;
59442;SDS011;45247;47.466;19.004;2022-11-15T12:42:58;59.47;;;34.47;;
59442;SDS011;45247;47.466;19.004;2022-11-15T12:45:29;63.25;;;35.15;;
59442;SDS011;45247;47.466;19.004;2022-11-15T12:51:05;62.33;;;35.20;;
59442;SDS011;45247;47.466;19.004;2022-11-15T12:53:33;67.05;;;38.30;;
59442;SDS011;45247;47.466;19.004;2022-11-15T12:56:09;59.55;;;36.03;;
59442;SDS011;45247;47.466;19.004;2022-11-15T12:58:47;60.90;;;34.63;;
59442;SDS011;45247;47.466;19.004;2022-11-15T13:04:34;64.70;;;36.42;;
59442;SDS011;45247;47.466;19.004;2022-11-15T13:07:04;62.63;;;36.38;;
59442;SDS011;45247;47.466;19.004;2022-11-15T13:09:52;63.28;;;37.20;;
59442;SDS011;45247;47.466;19.004;2022-11-15T13:15:37;61.40;;;35.35;;
59442;SDS011;45247;47.466;19.004;2022-11-15T13:21:21;58.63;;;36.08;;
59442;SDS011;45247;47.466;19.004;2022-11-15T13:24:15;62.25;;;35.10;;
59442;SDS011;45247;47.466;19.004;2022-11-15T13:26:44;69.00;;;36.97;;
59442;SDS011;45247;47.466;19.004;2022-11-15T13:29:16;64.90;;;35.42;;
59442;SDS011;45247;47.466;19.004;2022-11-15T13:31:46;60.28;;;35.00;;
59442;SDS011;45247;47.466;19.004;2022-11-15T13:34:23;62.10;;;35.28;;
59442;SDS011;45247;47.466;19.004;2022-11-15T13:37:27;59.35;;;33.60;;
59442;SDS011;45247;47.466;19.004;2022-11-15T13:40:00;58.95;;;32.42;;
59442;SDS011;45247;47.466;19.004;2022-11-15T13:42:43;53.95;;;31.45;;
59442;SDS011;45247;47.466;19.004;2022-11-15T13:45:12;60.20;;;32.80;;
59442;SDS011;45247;47.466;19.004;2022-11-15T13:47:43;52.95;;;32.63;;
59442;SDS011;45247;47.466;19.004;2022-11-15T13:50:11;55.42;;;31.02;;
59442;SDS011;45247;47.466;19.004;2022-11-15T13:52:40;53.03;;;31.00;;
59442;SDS011;45247;47.466;19.004;2022-11-15T13:55:14;51.90;;;30.23;;
59442;SDS011;45247;47.466;19.004;2022-11-15T13:57:45;49.58;;;28.75;;
59442;SDS011;45247;47.466;19.004;2022-11-15T14:00:26;50.67;;;30.15;;
59442;SDS011;45247;47.466;19.004;2022-11-15T14:03:03;51.67;;;31.05;;
59442;SDS011;45247;47.466;19.004;2022-11-15T14:05:34;49.33;;;28.45;;
59442;SDS011;45247;47.466;19.004;2022-11-15T14:08:03;53.22;;;30.63;;
59442;SDS011;45247;47.466;19.004;2022-11-15T14:10:50;56.28;;;32.25;;
59442;SDS011;45247;47.466;19.004;2022-11-15T14:13:33;51.60;;;30.52;;
59442;SDS011;45247;47.466;19.004;2022-11-15T14:16:15;65.28;;;33.55;;
59442;SDS011;45247;47.466;19.004;2022-11-15T14:18:46;60.22;;;32.85;;
59442;SDS011;45247;47.466;19.004;2022-11-15T14:21:16;57.70;;;32.30;;
59442;SDS011;45247;47.466;19.004;2022-11-15T14:23:45;53.20;;;31.98;;
59442;SDS011;45247;47.466;19.004;2022-11-15T14:26:29;55.38;;;32.35;;
59442;SDS011;45247;47.466;19.004;2022-11-15T14:31:52;59.70;;;33.47;;
59442;SDS011;45247;47.466;19.004;2022-11-15T14:34:20;54.38;;;31.13;;
59442;SDS011;45247;47.466;19.004;2022-11-15T14:36:48;54.92;;;29.33;;
59442;SDS011;45247;47.466;19.004;2022-11-15T14:39:17;45.00;;;27.23;;
59442;SDS011;45247;47.466;19.004;2022-11-15T14:41:46;47.15;;;26.67;;
59442;SDS011;45247;47.466;19.004;2022-11-15T14:44:14;52.40;;;29.48;;
59442;SDS011;45247;47.466;19.004;2022-11-15T14:46:44;55.85;;;31.75;;
59442;SDS011;45247;47.466;19.004;2022-11-15T14:49:14;55.78;;;30.80;;
59442;SDS011;45247;47.466;19.004;2022-11-15T14:51:42;55.05;;;30.88;;
59442;SDS011;45247;47.466;19.004;2022-11-15T14:54:10;60.05;;;32.33;;
59442;SDS011;45247;47.466;19.004;2022-11-15T14:56:38;56.67;;;30.85;;
59442;SDS011;45247;47.466;19.004;2022-11-15T14:59:09;54.55;;;30.10;;
59442;SDS011;45247;47.466;19.004;2022-11-15T15:01:37;54.47;;;30.45;;
59442;SDS011;45247;47.466;19.004;2022-11-15T15:04:05;50.53;;;28.83;;
59442;SDS011;45247;47.466;19.004;2022-11-15T15:06:33;50.50;;;28.02;;
59442;SDS011;45247;47.466;19.004;2022-11-15T15:09:02;57.60;;;30.30;;
59442;SDS011;45247;47.466;19.004;2022-11-15T15:11:30;57.33;;;29.27;;